Time;durP1;ratioP1;P1;durP2;ratioP2;P2;SDS_P1;SDS_P2;PMS_P1;PMS_P2;Temp;Humidity;BMP_temperature;BMP_pressure;BME280_temperature;BME280_humidity;BME280_pressure;Samples;Min_cycle;Max_cycle;Signal;HPM_P1;HPM_P2
2022/06/28 00:05:06;;;;;;;0.30;0.30;;;;;;;17.26;56.07;101528.97;5178939;28;20098;-80
2022/06/28 00:07:37;;;;;;;0.28;0.28;;;;;;;17.26;56.03;101525.47;5166053;28;20034;-80
2022/06/28 00:10:10;;;;;;;2.20;0.68;;;;;;;17.22;55.83;101527.38;5177310;28;20029;-80
2022/06/28 00:12:42;;;;;;;0.20;0.20;;;;;;;17.20;56.24;101523.94;5184769;28;20035;-80
2022/06/28 00:18:09;;;;;;;0.20;0.20;;;;;;;17.15;56.12;101520.59;5221755;28;20043;-80
2022/06/28 00:20:39;;;;;;;0.47;0.47;;;;;;;17.13;55.96;101517.16;5205949;28;20040;-80
2022/06/28 00:23:10;;;;;;;0.30;0.30;;;;;;;17.13;56.53;101514.50;5221698;28;20025;-81
2022/06/28 00:25:41;;;;;;;0.38;0.38;;;;;;;17.07;56.07;101517.41;5181331;28;20052;-80
2022/06/28 00:28:11;;;;;;;0.30;0.30;;;;;;;17.05;56.05;101513.97;5195971;28;20529;-80
2022/06/28 00:30:42;;;;;;;0.32;0.32;;;;;;;17.04;56.17;101506.94;5191406;28;20060;-80
2022/06/28 00:33:12;;;;;;;0.52;0.52;;;;;;;17.01;56.31;101509.72;5181777;28;20049;-80
2022/06/28 00:35:44;;;;;;;5.57;1.15;;;;;;;16.97;56.21;101504.56;5167139;28;20049;-80
2022/06/28 00:38:16;;;;;;;1.98;0.40;;;;;;;16.95;56.27;101502.88;5193302;28;20053;-80
2022/06/28 00:40:49;;;;;;;8.15;2.05;;;;;;;16.92;56.26;101502.97;5216727;28;20255;-80
2022/06/28 00:43:20;;;;;;;;;;;;;;;16.91;56.26;101511.84;5182348;28;20033;-80
2022/06/28 00:45:51;;;;;;;0.40;0.40;;;;;;;16.88;56.38;101507.53;5202899;28;19928;-80
2022/06/28 00:48:24;;;;;;;0.20;0.20;;;;;;;16.81;56.64;101506.94;5186729;28;20473;-80
2022/06/28 00:50:55;;;;;;;0.30;0.30;;;;;;;16.83;56.53;101512.16;5194160;28;20037;-81
2022/06/28 00:53:25;;;;;;;0.22;0.22;;;;;;;16.82;56.57;101513.06;5204875;28;20032;-80
2022/06/28 00:55:56;;;;;;;0.30;0.30;;;;;;;16.79;56.45;101519.38;5182414;28;20465;-80
2022/06/28 00:58:27;;;;;;;0.30;0.30;;;;;;;16.76;56.64;101518.63;5194840;28;20025;-80
2022/06/28 01:00:58;;;;;;;0.40;0.40;;;;;;;16.74;56.90;101509.88;5200801;28;20065;-80
2022/06/28 01:03:28;;;;;;;0.50;0.50;;;;;;;16.71;56.92;101517.97;5187644;28;20037;-80
2022/06/28 01:05:59;;;;;;;0.40;0.40;;;;;;;16.67;56.88;101514.56;5179464;28;20032;-80
2022/06/28 01:08:30;;;;;;;0.22;0.22;;;;;;;16.61;57.34;101517.47;5169635;28;20116;-80
2022/06/28 01:11:18;;;;;;;0.55;0.50;;;;;;;16.60;56.81;101515.75;5199740;28;20049;-81
2022/06/28 01:13:55;;;;;;;1.27;1.20;;;;;;;16.57;57.05;101511.41;5219001;28;20382;-81
2022/06/28 01:16:26;;;;;;;0.28;0.22;;;;;;;16.55;57.05;101515.94;5195243;28;20044;-80
2022/06/28 01:18:57;;;;;;;0.38;0.38;;;;;;;16.51;57.09;101515.19;5201483;28;20021;-80
2022/06/28 01:21:29;;;;;;;0.68;0.40;;;;;;;16.50;57.17;101523.19;5199542;28;20557;-80
2022/06/28 01:24:01;;;;;;;3.15;0.93;;;;;;;16.46;57.23;101526.88;5184098;28;20021;-81
2022/06/28 01:26:32;;;;;;;0.38;0.38;;;;;;;16.45;57.33;101533.09;5208958;28;20039;-80
2022/06/28 01:29:03;;;;;;;0.40;0.40;;;;;;;16.42;57.35;101525.25;5206378;28;20679;-80
2022/06/28 01:31:37;;;;;;;0.60;0.60;;;;;;;16.41;57.37;101526.19;5210633;28;20041;-80
2022/06/28 01:34:08;;;;;;;0.30;0.30;;;;;;;16.38;57.15;101529.81;5192723;28;20130;-80
2022/06/28 01:36:39;;;;;;;0.57;0.57;;;;;;;16.36;57.71;101536.97;5205153;28;20625;-80
2022/06/28 01:39:13;;;;;;;0.25;0.25;;;;;;;16.32;57.55;101538.84;5193786;28;20029;-80
2022/06/28 01:41:44;;;;;;;0.25;0.25;;;;;;;16.30;57.53;101542.50;5204505;28;20056;-80
2022/06/28 01:44:15;;;;;;;0.57;0.57;;;;;;;16.29;57.69;101540.75;5203815;28;20029;-80
2022/06/28 01:46:45;;;;;;;0.43;0.43;;;;;;;16.25;57.72;101539.16;5200295;28;20043;-80
2022/06/28 01:49:16;;;;;;;0.30;0.30;;;;;;;16.24;58.04;101540.94;5188036;28;20032;-80
2022/06/28 01:51:51;;;;;;;;;;;;;;;16.20;57.85;101542.84;5192301;28;20044;-80
2022/06/28 01:54:21;;;;;;;1.00;0.73;;;;;;;16.19;57.81;101543.78;5187361;28;20675;-80
2022/06/28 01:56:52;;;;;;;0.50;0.50;;;;;;;16.14;57.84;101543.06;5186219;28;20116;-79
2022/06/28 01:59:23;;;;;;;0.35;0.35;;;;;;;16.15;57.98;101550.09;5197375;28;20089;-80
2022/06/28 02:01:54;;;;;;;0.40;0.40;;;;;;;16.15;57.92;101555.38;5211565;28;20037;-81
2022/06/28 02:04:29;;;;;;;0.22;0.22;;;;;;;16.14;58.05;101560.75;5188305;28;20025;-80
2022/06/28 02:07:00;;;;;;;1.35;0.73;;;;;;;16.13;58.14;101561.66;5172260;28;20045;-79
2022/06/28 02:09:33;;;;;;;0.28;0.28;;;;;;;16.12;57.88;101570.53;5185794;28;20018;-79
2022/06/28 02:12:07;;;;;;;0.32;0.32;;;;;;;16.10;58.04;101577.66;5203092;28;20797;-79
2022/06/28 02:14:40;;;;;;;1.85;1.55;;;;;;;16.06;58.49;101574.25;5206616;28;20381;-79
2022/06/28 02:17:11;;;;;;;0.60;0.60;;;;;;;16.03;58.29;101577.88;5187616;28;20045;-79
2022/06/28 02:19:42;;;;;;;0.52;0.50;;;;;;;16.04;58.25;101574.31;5222059;28;20097;-79
2022/06/28 02:22:12;;;;;;;0.20;0.20;;;;;;;16.02;58.05;101581.44;5190150;28;20029;-80
2022/06/28 02:24:43;;;;;;;0.20;0.20;;;;;;;16.00;58.25;101587.72;5208188;28;20119;-81
2022/06/28 02:27:14;;;;;;;0.50;0.50;;;;;;;15.99;58.03;101586.00;5220006;28;20044;-80
2022/06/28 02:29:47;;;;;;;0.47;0.47;;;;;;;15.99;58.21;101586.84;5187614;28;20056;-79
2022/06/28 02:32:17;;;;;;;2.17;1.75;;;;;;;15.99;58.24;101597.44;5185968;28;20706;-80
2022/06/28 02:40:27;;;;;;;0.38;0.38;;;;;;;15.95;58.49;101595.81;5201637;28;20033;-80
2022/06/28 02:42:59;;;;;;;0.45;0.45;;;;;;;15.94;58.30;101594.09;5236945;28;20674;-81
2022/06/28 02:45:32;;;;;;;0.52;0.52;;;;;;;15.92;58.58;101600.38;5200607;28;20039;-80
2022/06/28 02:48:08;;;;;;;0.40;0.40;;;;;;;15.91;58.33;101599.47;5232377;28;20060;-80
2022/06/28 02:50:41;;;;;;;0.20;0.20;;;;;;;15.89;58.43;101604.00;5184160;28;20141;-80
2022/06/28 02:53:12;;;;;;;;;;;;;;;15.87;58.59;101603.16;5187260;28;20575;-81
2022/06/28 02:55:42;;;;;;;0.20;0.20;;;;;;;15.85;58.48;101605.88;5198303;28;19916;-80
2022/06/28 02:58:15;;;;;;;0.65;0.55;;;;;;;15.83;58.76;101605.06;5220625;28;20796;-80
2022/06/28 03:00:48;;;;;;;0.43;0.32;;;;;;;15.82;58.39;101605.09;5201623;28;20037;-79
2022/06/28 03:03:19;;;;;;;;;;;;;;;15.78;58.29;101601.69;5192950;28;20065;-80
2022/06/28 03:05:49;;;;;;;0.40;0.40;;;;;;;15.78;58.35;101609.63;5185299;28;19973;-80
2022/06/28 03:08:20;;;;;;;0.30;0.30;;;;;;;15.76;58.65;101615.88;5177850;28;20563;-80
2022/06/28 03:10:53;;;;;;;0.50;0.50;;;;;;;15.77;58.94;101620.25;5180141;28;20048;-80
2022/06/28 03:13:24;;;;;;;0.30;0.30;;;;;;;15.74;58.63;101623.88;5186896;28;20036;-80
2022/06/28 03:15:55;;;;;;;6.18;2.25;;;;;;;15.72;58.84;101621.28;5200527;28;20032;-80
2022/06/28 03:18:28;;;;;;;0.30;0.30;;;;;;;15.71;58.91;101616.91;5188699;28;20659;-80
2022/06/28 03:21:03;;;;;;;0.40;0.40;;;;;;;15.69;58.56;101616.09;5199050;28;20037;-80
2022/06/28 03:23:39;;;;;;;0.20;0.20;;;;;;;15.69;58.53;101618.72;5188491;28;20064;-80
2022/06/28 03:26:11;;;;;;;0.98;0.70;;;;;;;15.65;58.56;101614.47;5199141;28;20087;-80
2022/06/28 03:28:41;;;;;;;0.40;0.40;;;;;;;15.63;58.88;101628.66;5190122;28;20048;-80
2022/06/28 03:31:15;;;;;;;0.40;0.40;;;;;;;15.62;58.85;101629.59;5201149;28;20045;-80
2022/06/28 03:33:45;;;;;;;0.32;0.32;;;;;;;15.61;58.88;101630.50;5182467;28;20230;-80
2022/06/28 03:36:16;;;;;;;0.60;0.60;;;;;;;15.57;58.85;101640.31;5179964;28;20112;-80
2022/06/28 03:38:50;;;;;;;0.38;0.38;;;;;;;15.55;58.89;101642.16;5185639;28;20465;-79
2022/06/28 03:41:23;;;;;;;0.25;0.25;;;;;;;15.50;59.08;101638.78;5177277;28;20052;-80
2022/06/28 03:43:57;;;;;;;0.30;0.30;;;;;;;15.50;59.01;101638.78;5185134;28;20119;-79
2022/06/28 03:46:28;;;;;;;0.65;0.65;;;;;;;15.52;59.44;101639.59;5183272;28;20136;-80
2022/06/28 03:48:58;;;;;;;0.38;0.38;;;;;;;15.49;61.37;101637.94;5219686;28;20029;-80
2022/06/28 03:51:29;;;;;;;0.30;0.30;;;;;;;15.48;59.79;101638.84;5194493;28;20046;-79
2022/06/28 03:53:59;;;;;;;0.20;0.20;;;;;;;15.48;59.74;101632.69;5184955;28;20037;-80
2022/06/28 03:56:33;;;;;;;0.52;0.52;;;;;;;15.46;59.48;101642.44;5178413;28;20041;-80
2022/06/28 03:59:03;;;;;;;0.95;0.95;;;;;;;15.46;59.51;101639.81;5191742;28;20031;-80
2022/06/28 04:01:34;;;;;;;0.30;0.30;;;;;;;15.45;59.45;101641.59;5204796;28;20133;-79
2022/06/28 04:04:07;;;;;;;0.30;0.30;;;;;;;15.47;59.50;101641.53;5201018;28;20025;-80
2022/06/28 04:06:44;;;;;;;0.40;0.40;;;;;;;15.47;59.44;101644.19;5185575;28;20114;-80
2022/06/28 04:09:17;;;;;;;0.63;0.63;;;;;;;15.48;59.43;101648.56;5178818;28;20551;-80
2022/06/28 04:11:48;;;;;;;0.40;0.40;;;;;;;15.46;59.66;101656.53;5168701;28;20056;-80
2022/06/28 04:14:18;;;;;;;1.40;0.77;;;;;;;15.47;59.59;101657.41;5196936;28;20124;-80
2022/06/28 04:16:57;;;;;;;0.38;0.38;;;;;;;15.46;59.53;101653.88;5211548;28;20044;-80
2022/06/28 04:19:28;;;;;;;0.50;0.50;;;;;;;15.46;59.74;101650.38;5190014;28;20033;-80
2022/06/28 04:22:03;;;;;;;0.30;0.30;;;;;;;15.47;59.92;101658.25;5179272;28;20087;-79
2022/06/28 04:24:34;;;;;;;0.47;0.47;;;;;;;15.47;59.67;101657.41;5170652;28;20108;-80
2022/06/28 04:27:06;;;;;;;0.20;0.20;;;;;;;15.45;59.59;101659.22;5184346;28;20115;-80
2022/06/28 04:29:39;;;;;;;2.30;1.13;;;;;;;15.46;59.82;101663.59;5199768;28;20025;-80
2022/06/28 04:32:18;;;;;;;0.65;0.40;;;;;;;15.44;59.74;101663.66;5198815;28;20375;-79
2022/06/28 04:34:48;;;;;;;0.40;0.40;;;;;;;15.46;59.94;101656.53;5200946;28;20132;-80
2022/06/28 04:37:24;;;;;;;0.77;0.77;;;;;;;15.46;60.15;101660.97;5180366;28;20473;-79
2022/06/28 04:39:58;;;;;;;0.30;0.30;;;;;;;15.43;59.92;101662.78;5204672;28;20116;-80
2022/06/28 04:42:28;;;;;;;0.50;0.50;;;;;;;15.43;63.48;101662.78;5212361;28;20140;-80
2022/06/28 04:44:59;;;;;;;0.57;0.57;;;;;;;15.46;60.60;101664.47;5201494;28;20714;-80
2022/06/28 04:47:32;;;;;;;0.50;0.50;;;;;;;15.45;61.21;101664.53;5169719;28;20036;-83
2022/06/28 04:50:12;;;;;;;1.10;1.00;;;;;;;15.46;63.26;101668.91;5178661;28;20025;-81
2022/06/28 04:52:43;;;;;;;0.40;0.40;;;;;;;15.49;60.83;101666.16;5212993;28;20033;-80
2022/06/28 04:55:13;;;;;;;0.20;0.20;;;;;;;15.51;60.71;101659.03;5200204;28;20044;-81
2022/06/28 04:57:44;;;;;;;0.30;0.30;;;;;;;15.49;61.18;101664.38;5199755;28;20048;-80
2022/06/28 05:00:18;;;;;;;0.35;0.35;;;;;;;15.51;60.82;101659.91;5206182;28;20044;-80
2022/06/28 05:02:49;;;;;;;0.60;0.60;;;;;;;15.54;60.97;101661.56;5201516;28;20037;-81
2022/06/28 05:05:19;;;;;;;0.68;0.68;;;;;;;15.61;61.50;101664.91;5188894;28;20048;-81
2022/06/28 05:07:50;;;;;;;0.40;0.40;;;;;;;15.57;61.34;101658.84;5195003;28;20156;-84
2022/06/28 05:10:21;;;;;;;0.20;0.20;;;;;;;15.56;61.70;101657.09;5196179;28;20107;-82
2022/06/28 05:12:52;;;;;;;0.30;0.30;;;;;;;15.52;63.02;101660.75;5201841;28;20040;-80
2022/06/28 05:15:22;;;;;;;0.20;0.20;;;;;;;15.54;62.12;101651.00;5204636;28;20037;-79
2022/06/28 05:17:53;;;;;;;0.20;0.20;;;;;;;15.57;62.33;101650.91;5204974;28;20037;-81
2022/06/28 05:20:24;;;;;;;0.40;0.40;;;;;;;15.61;64.51;101649.88;5204767;28;20095;-80
2022/06/28 05:22:57;;;;;;;0.20;0.20;;;;;;;15.62;62.51;101653.41;5188798;28;20083;-81
2022/06/28 05:25:28;;;;;;;4.63;1.08;;;;;;;15.57;63.38;101656.19;5199388;28;20335;-80
2022/06/28 05:27:59;;;;;;;0.35;0.35;;;;;;;15.58;63.74;101656.13;5195761;28;20045;-80
2022/06/28 05:30:30;;;;;;;0.38;0.38;;;;;;;15.66;63.67;101655.00;5191023;28;20124;-81
2022/06/28 05:33:03;;;;;;;0.20;0.20;;;;;;;15.63;64.05;101652.47;5174358;28;20024;-80
2022/06/28 05:35:34;;;;;;;0.20;0.20;;;;;;;15.69;62.57;101652.28;5181857;28;20509;-81
2022/06/28 05:38:10;;;;;;;0.93;0.43;;;;;;;15.72;64.17;101650.38;5199855;28;20036;-80
2022/06/28 05:40:41;;;;;;;0.20;0.20;;;;;;;15.66;62.84;101652.38;5154430;28;20041;-80
2022/06/28 05:43:11;;;;;;;0.20;0.20;;;;;;;15.68;64.57;101654.03;5186514;28;20036;-80
2022/06/28 05:45:42;;;;;;;0.40;0.40;;;;;;;15.76;63.44;101655.56;5189294;28;20045;-80
2022/06/28 05:48:16;;;;;;;0.25;0.25;;;;;;;15.76;63.40;101659.09;5220296;28;20032;-80
2022/06/28 05:50:50;;;;;;;0.50;0.50;;;;;;;15.76;63.25;101656.44;5219889;28;20027;-80
2022/06/28 05:53:20;;;;;;;0.30;0.30;;;;;;;15.79;62.77;101655.47;5225561;28;20017;-80
2022/06/28 05:55:51;;;;;;;0.82;0.60;;;;;;;15.78;63.82;101654.63;5183780;28;20047;-80
2022/06/28 05:58:22;;;;;;;1.85;1.27;;;;;;;15.81;63.14;101651.00;5188744;28;20075;-80
2022/06/28 06:00:53;;;;;;;0.28;0.28;;;;;;;15.81;62.81;101651.84;5225251;28;20037;-80
2022/06/28 06:03:28;;;;;;;0.30;0.30;;;;;;;15.83;62.48;101651.78;5201916;28;20057;-80
2022/06/28 06:06:01;;;;;;;0.57;0.57;;;;;;;15.84;63.50;101656.19;5191113;28;20049;-81
2022/06/28 06:08:32;;;;;;;1.08;1.08;;;;;;;15.80;64.10;101651.91;5212431;28;20567;-81
2022/06/28 06:11:07;;;;;;;0.98;0.40;;;;;;;15.86;63.19;101649.06;5177874;28;20041;-81
2022/06/28 06:13:41;;;;;;;0.20;0.20;;;;;;;15.89;62.33;101649.81;5189310;28;20088;-80
2022/06/28 06:16:12;;;;;;;0.28;0.28;;;;;;;15.93;63.22;101650.59;5200349;28;20044;-81
2022/06/28 06:18:43;;;;;;;0.20;0.20;;;;;;;15.95;62.72;101658.50;5171816;28;20017;-81
2022/06/28 06:21:22;;;;;;;0.73;0.45;;;;;;;16.00;62.58;101664.47;5181020;28;20056;-81
2022/06/28 06:23:53;;;;;;;0.32;0.32;;;;;;;16.04;62.49;101658.16;5203937;28;20112;-80
2022/06/28 06:26:25;;;;;;;1.10;0.60;;;;;;;16.08;62.03;101658.91;5207267;28;20079;-81
2022/06/28 06:28:55;;;;;;;0.20;0.20;;;;;;;16.11;62.08;101659.69;5198688;28;20028;-81
2022/06/28 06:31:27;;;;;;;1.38;0.93;;;;;;;16.06;63.51;101656.31;5216345;28;20048;-81
2022/06/28 06:33:58;;;;;;;6.60;1.35;;;;;;;16.03;63.56;101665.25;5186912;28;20399;-82
2022/06/28 06:36:35;;;;;;;8.63;0.98;;;;;;;16.12;62.53;101663.19;5191559;28;20063;-80
2022/06/28 06:39:09;;;;;;;0.40;0.40;;;;;;;16.18;62.61;101670.91;5204187;28;20405;-80
2022/06/28 06:41:40;;;;;;;0.30;0.30;;;;;;;16.18;63.58;101665.59;5184139;28;20056;-80
2022/06/28 06:44:11;;;;;;;1.20;0.95;;;;;;;16.21;62.34;101669.00;5202292;28;20036;-80
2022/06/28 06:46:41;;;;;;;0.63;0.63;;;;;;;16.29;62.29;101674.03;5187315;28;20517;-79
2022/06/28 06:49:18;;;;;;;0.20;0.20;;;;;;;16.34;62.49;101672.06;5187198;28;20037;-80
2022/06/28 06:51:51;;;;;;;0.43;0.43;;;;;;;16.25;62.58;101671.56;5215397;28;20044;-80
2022/06/28 06:54:24;;;;;;;0.40;0.40;;;;;;;16.32;62.33;101676.56;5184728;28;20382;-80
2022/06/28 06:56:55;;;;;;;;;;;;;;;16.39;61.98;101679.00;5184247;28;20064;-80
2022/06/28 06:59:25;;;;;;;0.20;0.20;;;;;;;16.43;61.87;101678.84;5185500;28;19913;-80
2022/06/28 07:01:56;;;;;;;0.20;0.20;;;;;;;16.40;62.61;101676.28;5184824;28;20158;-80
2022/06/28 07:04:26;;;;;;;0.20;0.20;;;;;;;16.47;61.88;101674.28;5170106;28;20032;-80
2022/06/28 07:06:57;;;;;;;0.35;0.35;;;;;;;16.49;62.05;101670.66;5188814;28;20040;-80
2022/06/28 07:09:28;;;;;;;0.20;0.20;;;;;;;16.56;61.78;101670.44;5181389;28;20055;-79
2022/06/28 07:11:58;;;;;;;0.20;0.20;;;;;;;16.62;61.97;101675.50;5182110;28;20114;-79
2022/06/28 07:14:29;;;;;;;0.20;0.20;;;;;;;16.67;61.33;101674.41;5204313;28;20104;-80
2022/06/28 07:16:59;;;;;;;0.25;0.25;;;;;;;16.74;61.47;101664.44;5200234;28;20449;-79
2022/06/28 07:19:34;;;;;;;1.17;0.40;;;;;;;16.74;61.35;101669.75;5180510;28;20040;-80
2022/06/28 07:22:13;;;;;;;0.20;0.20;;;;;;;16.77;61.25;101668.75;5181119;28;20037;-80
2022/06/28 07:24:43;;;;;;;0.20;0.20;;;;;;;16.80;61.41;101663.34;5181667;28;20463;-80
2022/06/28 07:27:14;;;;;;;0.30;0.30;;;;;;;16.73;61.63;101662.72;5203258;28;20037;-79
2022/06/28 07:29:44;;;;;;;1.05;1.00;;;;;;;16.80;61.42;101663.34;5218893;28;20108;-80
2022/06/28 07:32:18;;;;;;;0.30;0.30;;;;;;;16.83;61.27;101660.56;5182249;28;20037;-77
2022/06/28 07:34:52;;;;;;;1.20;0.98;;;;;;;16.94;61.16;101666.38;5170865;28;20055;-80
2022/06/28 07:37:22;;;;;;;0.28;0.25;;;;;;;16.91;61.00;101666.44;5202345;28;20041;-78
2022/06/28 07:39:53;;;;;;;0.43;0.43;;;;;;;17.03;61.17;101664.28;5183449;28;20025;-78
2022/06/28 07:42:24;;;;;;;0.20;0.20;;;;;;;17.03;60.92;101674.88;5189165;28;20037;-78
2022/06/28 07:44:54;;;;;;;0.20;0.20;;;;;;;17.08;60.99;101668.47;5183187;28;20035;-77
2022/06/28 07:47:28;;;;;;;0.20;0.20;;;;;;;17.01;61.05;101672.31;5194767;28;20041;-77
2022/06/28 07:52:48;;;;;;;0.20;0.20;;;;;;;17.13;60.52;101670.94;5200710;28;20375;-78
2022/06/28 07:55:21;;;;;;;0.30;0.30;;;;;;;17.17;60.42;101661.09;5184087;28;20045;-79
2022/06/28 07:57:51;;;;;;;0.30;0.30;;;;;;;17.18;60.26;101658.38;5185550;28;20079;-78
2022/06/28 08:00:22;;;;;;;0.20;0.20;;;;;;;17.22;60.23;101656.44;5201251;28;20525;-79
2022/06/28 08:02:53;;;;;;;0.20;0.20;;;;;;;17.21;59.96;101658.25;5170790;28;20753;-79
2022/06/28 08:05:24;;;;;;;0.20;0.20;;;;;;;17.21;60.11;101658.25;5199967;28;20119;-78
2022/06/28 08:07:55;;;;;;;0.28;0.28;;;;;;;17.20;59.21;101655.63;5185413;28;20028;-79
2022/06/28 08:10:25;;;;;;;0.20;0.20;;;;;;;17.21;59.45;101652.94;5198994;28;20084;-78
2022/06/28 08:12:56;;;;;;;0.55;0.55;;;;;;;17.28;59.39;101646.47;5200928;28;20029;-79
2022/06/28 08:15:27;;;;;;;0.25;0.25;;;;;;;17.33;59.41;101640.97;5180013;28;20271;-79
2022/06/28 08:18:03;;;;;;;0.75;0.55;;;;;;;17.39;59.32;101645.16;5194969;28;20040;-79
2022/06/28 08:20:37;;;;;;;0.30;0.30;;;;;;;17.36;59.08;101645.28;5199850;28;20059;-79
2022/06/28 08:23:15;;;;;;;1.23;0.98;;;;;;;17.43;59.55;101641.44;5198901;28;20029;-78
2022/06/28 08:25:46;;;;;;;2.40;0.95;;;;;;;17.48;59.31;101639.47;5200357;28;20517;-79
2022/06/28 08:28:17;;;;;;;0.20;0.20;;;;;;;17.52;59.35;101638.41;5182132;28;20042;-78
2022/06/28 08:30:48;;;;;;;0.45;0.45;;;;;;;17.52;58.95;101637.56;5201873;28;20095;-79
2022/06/28 08:33:19;;;;;;;2.20;0.60;;;;;;;17.55;59.03;101646.25;5186574;28;20040;-79
2022/06/28 08:35:50;;;;;;;0.30;0.30;;;;;;;17.59;59.46;101631.06;5184445;28;20624;-79
2022/06/28 08:38:21;;;;;;;0.28;0.28;;;;;;;17.65;59.24;101636.13;5200644;28;20447;-79
2022/06/28 08:40:53;;;;;;;0.20;0.20;;;;;;;17.71;59.03;101633.19;5203877;28;20041;-79
2022/06/28 08:43:27;;;;;;;0.20;0.20;;;;;;;17.76;58.68;101630.34;5183002;28;20107;-79
2022/06/28 08:45:59;;;;;;;0.32;0.32;;;;;;;17.73;58.25;101630.47;5176077;28;20098;-79
2022/06/28 08:48:37;;;;;;;0.20;0.20;;;;;;;17.70;57.71;101630.63;5202603;28;20028;-79
2022/06/28 08:51:10;;;;;;;0.20;0.20;;;;;;;17.73;58.77;101630.47;5188952;28;20033;-79
2022/06/28 08:53:47;;;;;;;0.40;0.40;;;;;;;17.85;58.25;101624.66;5185042;28;20051;-79
2022/06/28 08:56:17;;;;;;;0.20;0.20;;;;;;;17.87;58.27;101619.25;5183907;28;20215;-79
2022/06/28 08:58:48;;;;;;;0.30;0.30;;;;;;;17.84;57.40;101622.91;5200786;28;20544;-79
2022/06/28 09:01:19;;;;;;;0.35;0.35;;;;;;;17.84;57.54;101619.41;5198899;28;20409;-79
2022/06/28 09:03:51;;;;;;;1.65;1.45;;;;;;;17.91;56.77;101613.75;5197554;28;20033;-79
2022/06/28 09:06:23;;;;;;;0.57;0.57;;;;;;;17.91;57.57;101608.44;5183418;28;20521;-79
2022/06/28 09:08:54;;;;;;;0.30;0.30;;;;;;;18.01;57.72;101600.97;5199379;28;20035;-79
2022/06/28 09:11:24;;;;;;;0.43;0.43;;;;;;;18.03;57.75;101600.91;5193790;28;20415;-79
2022/06/28 09:13:55;;;;;;;0.40;0.40;;;;;;;18.05;57.22;101604.38;5187012;28;20025;-79
2022/06/28 09:16:26;;;;;;;0.20;0.20;;;;;;;18.11;56.77;101598.78;5182652;28;20593;-80
2022/06/28 09:18:56;;;;;;;0.20;0.20;;;;;;;18.14;55.66;101595.97;5181485;28;20021;-79
2022/06/28 09:21:27;;;;;;;0.20;0.20;;;;;;;18.20;56.26;101593.03;5184266;28;20053;-79
2022/06/28 09:24:02;;;;;;;0.20;0.20;;;;;;;18.31;55.59;101589.00;5202415;28;20029;-80
2022/06/28 09:26:35;;;;;;;1.65;0.55;;;;;;;18.33;54.95;101585.38;5182526;28;20433;-79
2022/06/28 09:29:13;;;;;;;0.25;0.25;;;;;;;18.37;55.44;101591.41;5183728;28;20037;-80
2022/06/28 09:31:46;;;;;;;0.35;0.35;;;;;;;18.36;54.74;101576.41;5182524;28;20344;-80
2022/06/28 09:34:17;;;;;;;;;;;;;;;18.40;55.23;101583.28;5205884;28;20120;-80
2022/06/28 09:36:55;;;;;;;0.30;0.30;;;;;;;18.54;55.84;101578.22;5214782;28;19944;-79
2022/06/28 09:39:28;;;;;;;0.40;0.40;;;;;;;18.51;55.77;101586.31;5195283;28;20017;-79
2022/06/28 09:42:10;;;;;;;0.20;0.20;;;;;;;18.63;55.30;101586.69;5205814;28;20044;-79
2022/06/28 09:44:51;;;;;;;0.30;0.30;;;;;;;18.67;55.86;101574.94;5224449;28;20045;-79
2022/06/28 09:47:21;;;;;;;0.40;0.40;;;;;;;18.71;55.15;101576.53;5204646;28;20091;-79
2022/06/28 09:49:52;;;;;;;0.20;0.20;;;;;;;18.76;54.19;101574.50;5205624;28;20044;-78
2022/06/28 09:52:28;;;;;;;0.40;0.40;;;;;;;18.80;54.26;101573.41;5208846;28;20040;-77
2022/06/28 09:55:00;;;;;;;0.40;0.40;;;;;;;18.84;54.86;101569.69;5195785;28;20033;-77
2022/06/28 09:57:33;;;;;;;0.93;0.93;;;;;;;18.95;54.96;101569.19;5199523;28;20069;-78
2022/06/28 10:00:04;;;;;;;0.20;0.20;;;;;;;18.97;54.45;101564.66;5181225;28;20021;-78
2022/06/28 10:02:35;;;;;;;0.28;0.28;;;;;;;19.08;53.23;101560.63;5186392;28;20040;-78
2022/06/28 10:05:09;;;;;;;0.30;0.30;;;;;;;19.07;53.11;101559.75;5185802;28;20703;-78
2022/06/28 10:07:41;;;;;;;0.30;0.30;;;;;;;19.11;53.22;101561.34;5180248;28;20041;-78
2022/06/28 10:10:12;;;;;;;0.20;0.20;;;;;;;19.15;53.87;101557.56;5186689;28;20093;-78
2022/06/28 10:15:47;;;;;;;0.30;0.30;;;;;;;19.45;53.52;101548.09;5207605;28;20424;-78
2022/06/28 10:18:21;;;;;;;0.20;0.20;;;;;;;19.41;53.76;101552.72;5205975;28;20030;-79
2022/06/28 10:20:51;;;;;;;0.30;0.30;;;;;;;19.48;53.05;101546.16;5173283;28;20068;-78
2022/06/28 10:23:37;;;;;;;0.40;0.40;;;;;;;19.54;52.42;101547.63;5187607;28;20032;-79
2022/06/28 10:26:14;;;;;;;0.20;0.20;;;;;;;19.59;52.73;101548.25;5181410;28;20041;-79
2022/06/28 10:28:47;;;;;;;4.40;0.95;;;;;;;19.61;51.19;101534.88;5202628;28;20037;-79
2022/06/28 10:31:24;;;;;;;0.30;0.30;;;;;;;19.61;51.71;101525.06;5185809;28;20084;-79
2022/06/28 10:33:57;;;;;;;0.20;0.20;;;;;;;19.70;52.41;101526.41;5186153;28;20035;-79
2022/06/28 10:36:55;;;;;;;0.20;0.20;;;;;;;19.85;50.99;101518.56;5185475;28;20114;-79
2022/06/28 10:39:31;;;;;;;0.22;0.22;;;;;;;19.81;51.19;101516.03;5187189;28;20045;-79
2022/06/28 10:42:13;;;;;;;0.30;0.30;;;;;;;19.89;51.34;101518.31;5200134;28;20109;-79
2022/06/28 10:44:46;;;;;;;0.20;0.20;;;;;;;19.91;50.67;101504.91;5191911;28;20033;-79
2022/06/28 10:47:19;;;;;;;0.60;0.60;;;;;;;19.90;48.39;101503.19;5188957;28;20037;-79
2022/06/28 10:49:57;;;;;;;0.20;0.20;;;;;;;20.05;49.45;101498.84;5204133;28;20049;-79
2022/06/28 10:52:36;;;;;;;14.70;1.05;;;;;;;20.04;49.55;101492.66;5168298;28;20060;-79
2022/06/28 10:55:10;;;;;;;0.82;0.82;;;;;;;20.13;49.67;101497.47;5195396;28;20028;-79
2022/06/28 10:57:45;;;;;;;0.20;0.20;;;;;;;20.23;49.88;101491.63;5183597;28;20112;-78
2022/06/28 11:00:24;;;;;;;2.17;0.65;;;;;;;20.30;50.08;101490.34;5185469;28;20090;-79
2022/06/28 11:02:56;;;;;;;0.63;0.63;;;;;;;20.37;49.76;101486.38;5180017;28;20017;-79
2022/06/28 11:05:48;;;;;;;1.55;1.00;;;;;;;20.45;49.42;101483.31;5185805;28;20040;-79
2022/06/28 11:08:49;;;;;;;0.85;0.80;;;;;;;20.59;48.36;101487.84;5190439;28;20028;-79
2022/06/28 11:11:23;;;;;;;0.20;0.20;;;;;;;20.55;48.48;101467.63;5217451;28;20341;-79
2022/06/28 11:14:55;;;;;;;0.30;0.30;;;;;;;20.61;48.34;101477.97;5202934;28;20033;-79
2022/06/28 11:17:31;;;;;;;0.63;0.30;;;;;;;20.70;49.46;101480.06;5139789;28;20043;-78
2022/06/28 11:20:11;;;;;;;0.40;0.40;;;;;;;20.77;48.36;101477.09;5166519;28;20134;-79
2022/06/28 11:22:50;;;;;;;0.60;0.60;;;;;;;20.95;48.89;101473.34;5200551;28;20269;-79
2022/06/28 11:25:25;;;;;;;0.25;0.25;;;;;;;20.97;48.40;101470.59;5201560;28;20044;-79
2022/06/28 11:27:59;;;;;;;0.80;0.50;;;;;;;21.01;48.93;101474.78;5204616;28;20040;-78
2022/06/28 11:30:29;;;;;;;0.20;0.20;;;;;;;20.99;48.01;101464.22;5185655;28;20041;-79
2022/06/28 11:33:00;;;;;;;0.20;0.20;;;;;;;21.05;48.52;101453.16;5170823;28;20043;-79
2022/06/28 11:35:31;;;;;;;1.05;1.05;;;;;;;21.09;47.82;101455.66;5183629;28;20067;-78
2022/06/28 11:38:14;;;;;;;0.30;0.30;;;;;;;21.16;47.43;101449.84;5218902;28;20029;-79
2022/06/28 11:40:49;;;;;;;0.20;0.20;;;;;;;21.32;48.87;101451.63;5181545;28;20044;-78
2022/06/28 11:43:25;;;;;;;0.20;0.20;;;;;;;21.34;48.29;101453.22;5187499;28;20037;-79
2022/06/28 11:45:56;;;;;;;0.60;0.60;;;;;;;21.44;47.61;101447.34;5186587;28;20154;-79
2022/06/28 11:48:28;;;;;;;0.20;0.20;;;;;;;21.49;47.91;101440.72;5203454;28;20040;-79
2022/06/28 11:51:00;;;;;;;1.38;1.00;;;;;;;21.62;48.28;101440.84;5200246;28;20042;-79
2022/06/28 11:53:44;;;;;;;0.40;0.40;;;;;;;21.67;48.77;101435.22;5189165;28;20170;-79
2022/06/28 11:56:15;;;;;;;0.30;0.30;;;;;;;21.72;48.80;101442.97;5193816;28;20033;-79
2022/06/28 11:58:46;;;;;;;0.20;0.20;;;;;;;21.81;48.91;101435.25;5201271;28;20029;-79
2022/06/28 12:01:18;;;;;;;4.07;1.10;;;;;;;21.88;47.77;101441.03;5168189;28;20048;-79
2022/06/28 12:03:52;;;;;;;0.60;0.60;;;;;;;21.97;47.47;101435.09;5185126;28;20298;-79
2022/06/28 12:06:33;;;;;;;0.30;0.30;;;;;;;22.10;47.50;101437.84;5201462;28;20049;-79
2022/06/28 12:09:09;;;;;;;0.20;0.20;;;;;;;22.18;47.04;101426.69;5184609;28;20116;-79
2022/06/28 12:11:50;;;;;;;0.20;0.20;;;;;;;22.24;46.48;101415.56;5219277;28;20547;-79